createdAt,value
2023-07-18T00:00:40.637Z,42.22
2023-07-18T00:03:10.138Z,47.25
2023-07-18T00:05:39.790Z,45.42
2023-07-18T00:08:09.482Z,46.28
2023-07-18T00:10:38.871Z,47.33
2023-07-18T00:13:09.721Z,47.38
2023-07-18T00:15:38.700Z,49.03
2023-07-18T00:18:09.106Z,48.75
2023-07-18T00:20:38.235Z,49.22
2023-07-18T00:23:08.328Z,47.03
2023-07-18T00:25:38.197Z,46.58
2023-07-18T00:28:08.115Z,46.15
2023-07-18T00:30:37.109Z,44.67
2023-07-18T00:33:06.150Z,46.03
2023-07-18T00:35:36.464Z,44.60
2023-07-18T00:38:05.417Z,42.97
2023-07-18T00:40:35.400Z,40.55
2023-07-18T00:43:04.498Z,43.42
2023-07-18T00:45:33.342Z,41.22
2023-07-18T00:48:02.692Z,38.28
2023-07-18T00:50:31.706Z,40.85
2023-07-18T00:53:03.098Z,40.42
2023-07-18T00:55:32.399Z,39.28
2023-07-18T00:58:05.682Z,40.33
2023-07-18T01:00:34.854Z,38.20
2023-07-18T01:03:03.808Z,36.25
2023-07-18T01:05:33.501Z,39.25
2023-07-18T01:08:03.069Z,38.50
2023-07-18T01:10:34.138Z,35.20
2023-07-18T01:13:03.806Z,39.83
2023-07-18T01:15:35.761Z,37.85
2023-07-18T01:20:35.463Z,40.53
2023-07-18T01:23:08.705Z,42.97
2023-07-18T01:25:39.496Z,47.10
2023-07-18T01:28:12.830Z,44.13
2023-07-18T01:30:44.819Z,44.38
2023-07-18T01:33:13.893Z,43.53
2023-07-18T01:35:43.180Z,39.95
2023-07-18T01:38:12.248Z,40.25
2023-07-18T01:40:41.012Z,41.00
2023-07-18T01:43:10.561Z,42.20
2023-07-18T01:45:40.366Z,40.50
2023-07-18T01:48:09.462Z,40.80
2023-07-18T01:50:38.433Z,41.30
2023-07-18T01:53:08.329Z,41.17
2023-07-18T01:55:38.016Z,41.75
2023-07-18T01:58:07.274Z,39.80
2023-07-18T02:00:40.062Z,39.40
2023-07-18T02:03:10.665Z,39.75
2023-07-18T02:05:40.331Z,39.53
2023-07-18T02:08:09.108Z,38.00
2023-07-18T02:10:38.356Z,35.75
2023-07-18T02:13:07.229Z,37.25
2023-07-18T02:15:36.538Z,37.75
2023-07-18T02:18:07.357Z,34.15
2023-07-18T02:20:36.376Z,32.13
2023-07-18T02:23:05.298Z,30.60
2023-07-18T02:25:34.988Z,32.05
2023-07-18T02:28:03.898Z,34.42
2023-07-18T02:30:33.112Z,33.65
2023-07-18T02:33:02.382Z,31.70
2023-07-18T02:35:32.476Z,29.10
2023-07-18T02:38:01.605Z,28.35
2023-07-18T02:40:30.561Z,27.35
2023-07-18T02:42:59.656Z,26.73
2023-07-18T02:45:28.461Z,27.88
2023-07-18T02:47:57.712Z,28.15
2023-07-18T02:50:26.711Z,27.88
2023-07-18T02:52:59.326Z,27.10
2023-07-18T02:55:29.739Z,28.67
2023-07-18T02:57:59.289Z,27.73
2023-07-18T03:00:28.248Z,26.83
2023-07-18T03:02:57.619Z,27.25
2023-07-18T03:05:26.885Z,27.80
2023-07-18T03:07:56.888Z,24.52
2023-07-18T03:10:26.772Z,25.38
2023-07-18T03:12:55.881Z,25.67
2023-07-18T03:15:24.788Z,27.63
2023-07-18T03:17:53.823Z,23.92
2023-07-18T03:20:26.237Z,22.63
2023-07-18T03:22:55.637Z,22.98
2023-07-18T03:25:24.467Z,25.23
2023-07-18T03:27:54.694Z,23.85
2023-07-18T03:30:23.693Z,23.00
2023-07-18T03:32:53.556Z,23.02
2023-07-18T03:35:22.550Z,23.73
2023-07-18T03:37:52.332Z,31.75
2023-07-18T03:40:23.648Z,26.95
2023-07-18T03:42:52.658Z,20.30
2023-07-18T03:45:21.450Z,21.67
2023-07-18T03:47:50.562Z,22.23
2023-07-18T03:50:20.213Z,20.73
2023-07-18T03:52:50.977Z,24.02
2023-07-18T03:55:20.329Z,21.38
2023-07-18T03:57:49.145Z,23.67
2023-07-18T04:00:20.237Z,20.67
2023-07-18T04:02:51.173Z,17.45
2023-07-18T04:05:21.038Z,18.53
2023-07-18T04:07:49.967Z,20.45
2023-07-18T04:10:19.104Z,19.05
2023-07-18T04:12:48.394Z,18.70
2023-07-18T04:15:17.977Z,19.88
2023-07-18T04:17:46.883Z,18.35
2023-07-18T04:20:16.838Z,19.38
2023-07-18T04:22:45.912Z,19.38
2023-07-18T04:25:18.256Z,18.67
2023-07-18T04:27:53.575Z,18.40
2023-07-18T04:30:26.215Z,19.00
2023-07-18T04:32:56.638Z,16.40
2023-07-18T04:35:26.579Z,17.23
2023-07-18T04:37:58.911Z,15.90
2023-07-18T04:40:28.853Z,17.25
2023-07-18T04:42:58.147Z,17.98
2023-07-18T04:45:27.216Z,16.55
2023-07-18T04:47:58.618Z,15.57
2023-07-18T04:50:30.139Z,16.23
2023-07-18T04:53:02.915Z,16.88
2023-07-18T04:55:33.359Z,16.23
2023-07-18T04:58:03.166Z,18.55
2023-07-18T05:00:33.598Z,17.02
2023-07-18T05:03:03.253Z,17.48
2023-07-18T05:05:32.701Z,18.50
2023-07-18T05:08:04.383Z,16.70
2023-07-18T05:10:33.577Z,16.00
2023-07-18T05:13:02.356Z,17.48
2023-07-18T05:15:31.479Z,16.92
2023-07-18T05:18:00.328Z,16.20
2023-07-18T05:20:30.855Z,24.88
2023-07-18T05:23:00.838Z,15.32
2023-07-18T05:25:30.248Z,17.02
2023-07-18T05:28:00.461Z,19.73
2023-07-18T05:30:29.515Z,29.83
2023-07-18T05:32:58.343Z,18.67
2023-07-18T05:35:27.433Z,16.65
2023-07-18T05:37:56.817Z,16.55
2023-07-18T05:40:26.027Z,15.77
2023-07-18T05:42:55.206Z,15.68
2023-07-18T05:45:24.365Z,16.58
2023-07-18T05:47:53.396Z,17.02
2023-07-18T05:50:25.476Z,15.90
2023-07-18T05:52:54.387Z,16.48
2023-07-18T05:55:23.266Z,15.32
2023-07-18T05:57:52.780Z,15.73
2023-07-18T06:00:23.043Z,15.98
2023-07-18T06:02:53.326Z,15.95
2023-07-18T06:05:23.454Z,15.65
2023-07-18T06:07:53.536Z,15.25
2023-07-18T06:10:23.370Z,15.27
2023-07-18T06:12:52.174Z,15.00
2023-07-18T06:15:21.853Z,16.90
2023-07-18T06:17:51.604Z,15.52
2023-07-18T06:20:22.062Z,16.98
2023-07-18T06:22:51.767Z,17.63
2023-07-18T06:25:20.817Z,14.98
2023-07-18T06:27:50.282Z,15.60
2023-07-18T06:30:22.305Z,15.85
2023-07-18T06:32:51.966Z,16.83
2023-07-18T06:35:24.060Z,16.48
2023-07-18T06:37:54.019Z,16.98
2023-07-18T06:40:23.692Z,17.90
2023-07-18T06:42:52.815Z,18.17
2023-07-18T06:45:21.885Z,17.45
2023-07-18T06:47:52.741Z,18.30
2023-07-18T06:50:22.190Z,17.80
2023-07-18T06:52:51.021Z,16.30
2023-07-18T06:55:23.007Z,15.90
2023-07-18T06:57:52.468Z,16.15
2023-07-18T07:00:24.280Z,16.05
2023-07-18T07:02:53.875Z,15.63
2023-07-18T07:05:26.514Z,17.42
2023-07-18T07:07:57.701Z,16.63
2023-07-18T07:10:28.136Z,15.95
2023-07-18T07:12:58.665Z,17.10
2023-07-18T07:15:29.802Z,15.45
2023-07-18T07:18:08.841Z,16.75
2023-07-18T07:20:41.371Z,14.95
2023-07-18T07:23:12.592Z,16.05
2023-07-18T07:25:47.177Z,16.23
2023-07-18T07:28:22.940Z,15.95
2023-07-18T07:31:04.544Z,15.20
2023-07-18T07:33:37.375Z,14.10
2023-07-18T07:36:07.698Z,15.88
2023-07-18T07:38:40.174Z,14.90
2023-07-18T07:41:12.419Z,15.25
2023-07-18T07:43:44.515Z,17.48
2023-07-18T07:46:18.081Z,14.60
2023-07-18T07:48:51.890Z,15.73
2023-07-18T07:51:25.331Z,14.27
2023-07-18T07:53:59.933Z,14.60
2023-07-18T07:56:30.656Z,13.88
2023-07-18T07:59:11.227Z,14.00
2023-07-18T08:01:44.175Z,14.95
2023-07-18T08:04:16.744Z,14.50
2023-07-18T08:06:49.291Z,14.52
2023-07-18T08:09:20.421Z,14.80
2023-07-18T08:11:52.681Z,13.65
2023-07-18T08:14:25.162Z,13.32
2023-07-18T08:16:57.220Z,14.68
2023-07-18T08:22:02.121Z,12.38
2023-07-18T08:24:33.931Z,12.73
2023-07-18T08:27:04.888Z,12.68
2023-07-18T08:29:38.545Z,12.20
2023-07-18T08:32:09.415Z,11.80
2023-07-18T08:34:41.936Z,12.77
2023-07-18T08:37:13.921Z,12.95
2023-07-18T08:39:45.665Z,13.65
2023-07-18T08:42:18.110Z,11.57
2023-07-18T08:44:53.797Z,11.57
2023-07-18T08:47:27.496Z,16.42
2023-07-18T08:49:58.311Z,14.65
2023-07-18T08:52:29.138Z,14.20
2023-07-18T08:55:00.425Z,15.27
2023-07-18T08:57:33.751Z,13.17
2023-07-18T09:00:11.513Z,13.82
2023-07-18T09:02:44.410Z,12.40
2023-07-18T09:05:41.585Z,13.85
2023-07-18T09:08:13.750Z,13.43
2023-07-18T09:10:44.504Z,12.05
2023-07-18T09:13:14.666Z,10.45
2023-07-18T09:15:45.414Z,9.25
2023-07-18T09:20:49.508Z,10.98
2023-07-18T09:23:21.550Z,10.82
2023-07-18T09:28:23.191Z,7.40
2023-07-18T09:30:54.379Z,6.10
2023-07-18T09:33:28.482Z,8.10
2023-07-18T09:36:01.595Z,6.47
2023-07-18T09:38:31.810Z,7.95
2023-07-18T09:41:14.017Z,8.60
2023-07-18T09:43:48.961Z,10.13
2023-07-18T09:46:21.213Z,9.05
2023-07-18T09:48:53.527Z,10.55
2023-07-18T09:51:33.968Z,9.65
2023-07-18T09:54:09.505Z,10.07
2023-07-18T09:56:42.558Z,10.50
2023-07-18T09:59:19.357Z,12.13
2023-07-18T10:01:54.501Z,11.65
2023-07-18T10:04:26.813Z,13.63
2023-07-18T10:06:58.222Z,12.57
2023-07-18T10:09:31.475Z,12.95
2023-07-18T10:12:03.864Z,12.85
2023-07-18T10:15:03.250Z,13.10
2023-07-18T10:17:43.638Z,13.05
2023-07-18T10:20:47.477Z,14.90
2023-07-18T10:23:21.664Z,15.23
2023-07-18T10:25:59.157Z,15.65
2023-07-18T10:28:45.558Z,25.40
2023-07-18T10:31:38.282Z,33.35
2023-07-18T10:34:14.988Z,15.63
2023-07-18T10:37:04.189Z,25.27
2023-07-18T10:40:02.779Z,16.02
2023-07-18T10:42:36.030Z,15.20
2023-07-18T10:45:09.946Z,16.23
2023-07-18T10:47:41.619Z,18.58
2023-07-18T10:50:12.442Z,30.27
2023-07-18T10:52:45.593Z,39.47
2023-07-18T10:55:17.967Z,22.15
2023-07-18T10:57:49.252Z,15.52
2023-07-18T11:00:22.152Z,15.90
2023-07-18T11:02:59.876Z,18.27
2023-07-18T11:05:32.283Z,54.05
2023-07-18T11:08:03.817Z,17.15
2023-07-18T11:10:39.807Z,17.17
2023-07-18T11:13:10.550Z,16.40
2023-07-18T11:15:41.850Z,15.68
2023-07-18T11:18:13.651Z,16.38
2023-07-18T11:20:48.911Z,44.55
2023-07-18T11:23:24.266Z,32.10
2023-07-18T11:26:21.101Z,16.25
2023-07-18T11:28:58.315Z,16.33
2023-07-18T11:31:48.633Z,15.95
2023-07-18T11:34:26.946Z,15.40
2023-07-18T11:36:59.602Z,17.15
2023-07-18T11:39:36.033Z,16.35
2023-07-18T11:42:11.854Z,16.88
2023-07-18T11:44:47.519Z,16.35
2023-07-18T11:47:19.693Z,17.00
2023-07-18T11:49:50.097Z,17.27
2023-07-18T11:52:23.022Z,18.05
2023-07-18T11:54:54.832Z,17.02
2023-07-18T11:57:25.646Z,17.83
2023-07-18T11:59:57.497Z,16.70
2023-07-18T12:02:30.351Z,18.42
2023-07-18T12:05:01.877Z,21.20
2023-07-18T12:07:33.738Z,23.08
2023-07-18T12:10:09.939Z,22.05
2023-07-18T12:12:42.446Z,21.15
2023-07-18T12:15:15.405Z,23.08
2023-07-18T12:17:47.024Z,21.92
2023-07-18T12:20:18.157Z,20.60
2023-07-18T12:22:48.332Z,21.63
2023-07-18T12:25:18.877Z,20.52
2023-07-18T12:27:49.314Z,20.75
2023-07-18T12:30:19.679Z,22.98
2023-07-18T12:32:49.939Z,19.85
2023-07-18T12:35:20.876Z,18.92
2023-07-18T12:37:51.483Z,16.42
2023-07-18T12:40:22.317Z,15.00
2023-07-18T12:42:55.236Z,16.08
2023-07-18T12:45:27.340Z,14.98
2023-07-18T12:47:57.544Z,15.48
2023-07-18T12:50:28.836Z,16.15
2023-07-18T12:53:01.054Z,15.35
2023-07-18T12:58:00.862Z,14.05
2023-07-18T13:00:30.436Z,17.10
2023-07-18T13:03:00.757Z,16.58
2023-07-18T13:05:30.059Z,15.55
2023-07-18T13:07:59.001Z,14.30
2023-07-18T13:10:28.111Z,14.45
2023-07-18T13:12:57.120Z,13.60
2023-07-18T13:15:26.288Z,14.68
2023-07-18T13:17:55.378Z,14.93
2023-07-18T13:20:24.863Z,14.13
2023-07-18T13:22:53.845Z,14.13
2023-07-18T13:25:24.176Z,14.25
2023-07-18T13:27:52.908Z,14.35
2023-07-18T13:30:24.434Z,14.27
2023-07-18T13:32:53.567Z,16.60
2023-07-18T13:35:22.403Z,16.77
2023-07-18T13:37:51.620Z,20.50
2023-07-18T13:40:20.475Z,20.60
2023-07-18T13:42:51.175Z,21.27
2023-07-18T13:45:20.198Z,20.35
2023-07-18T13:47:49.076Z,18.45
2023-07-18T13:52:59.659Z,18.88
2023-07-18T13:55:29.171Z,19.25
2023-07-18T13:57:58.125Z,18.73
2023-07-18T14:00:27.094Z,19.27
2023-07-18T14:02:56.152Z,19.98
2023-07-18T14:05:26.344Z,21.55
2023-07-18T14:07:58.039Z,19.02
2023-07-18T14:10:27.184Z,17.88
2023-07-18T14:12:58.238Z,21.60
2023-07-18T14:15:30.617Z,21.50
2023-07-18T14:18:03.004Z,22.45
2023-07-18T14:20:36.824Z,22.27
2023-07-18T14:23:10.200Z,20.98
2023-07-18T14:25:42.435Z,21.40
2023-07-18T14:28:15.688Z,22.10
2023-07-18T14:30:48.099Z,21.50
2023-07-18T14:33:21.439Z,21.60
2023-07-18T14:35:54.557Z,23.02
2023-07-18T14:38:27.920Z,23.65
2023-07-18T14:41:00.509Z,22.05
2023-07-18T14:43:37.599Z,20.60
2023-07-18T14:46:11.424Z,22.85
2023-07-18T14:48:44.068Z,26.90
2023-07-18T14:51:18.139Z,24.60
2023-07-18T14:53:51.679Z,24.15
2023-07-18T14:56:27.209Z,22.52
2023-07-18T14:59:00.167Z,24.30
2023-07-18T15:01:33.541Z,23.05
2023-07-18T15:04:06.828Z,23.70
2023-07-18T15:06:40.233Z,23.48
2023-07-18T15:09:13.573Z,24.67
2023-07-18T15:11:47.418Z,24.48
2023-07-18T15:14:21.450Z,24.75
2023-07-18T15:16:53.635Z,24.00
2023-07-18T15:19:33.774Z,25.42
2023-07-18T15:22:06.830Z,25.98
2023-07-18T15:24:40.764Z,25.55
2023-07-18T15:27:14.646Z,49.92
2023-07-18T15:29:47.813Z,30.05
2023-07-18T15:32:21.785Z,28.00
2023-07-18T15:34:55.020Z,27.63
2023-07-18T15:37:29.447Z,28.05
2023-07-18T15:40:04.557Z,30.38
2023-07-18T15:42:38.847Z,32.58
2023-07-18T15:45:13.338Z,29.13
2023-07-18T15:47:48.331Z,30.65
2023-07-18T15:50:23.745Z,30.45
2023-07-18T15:52:57.734Z,30.95
2023-07-18T15:55:30.913Z,29.58
2023-07-18T15:58:05.116Z,28.73
2023-07-18T16:00:37.924Z,30.08
2023-07-18T16:03:11.267Z,31.00
2023-07-18T16:05:43.661Z,29.23
2023-07-18T16:08:17.690Z,28.45
2023-07-18T16:10:51.678Z,30.23
2023-07-18T16:13:25.032Z,27.17
2023-07-18T16:15:59.150Z,28.75
2023-07-18T16:18:33.788Z,28.20
2023-07-18T16:21:06.691Z,28.25
2023-07-18T16:23:41.350Z,26.90
2023-07-18T16:26:13.670Z,28.08
2023-07-18T16:28:47.186Z,28.63
2023-07-18T16:31:24.436Z,27.27
2023-07-18T16:33:58.382Z,29.45
2023-07-18T16:36:31.483Z,29.02
2023-07-18T16:39:05.873Z,28.75
2023-07-18T16:41:42.296Z,26.20
2023-07-18T16:44:19.918Z,26.48
2023-07-18T16:46:53.327Z,27.35
2023-07-18T16:49:27.488Z,27.10
2023-07-18T16:52:01.430Z,26.13
2023-07-18T16:54:35.128Z,26.48
2023-07-18T16:57:08.741Z,24.70
2023-07-18T16:59:42.724Z,26.52
2023-07-18T17:02:16.494Z,26.58
2023-07-18T17:04:49.936Z,27.25
2023-07-18T17:07:23.041Z,26.52
2023-07-18T17:09:56.513Z,25.13
2023-07-18T17:12:30.252Z,25.83
2023-07-18T17:15:05.651Z,25.73
2023-07-18T17:17:38.947Z,25.40
2023-07-18T17:20:14.346Z,25.25
2023-07-18T17:22:46.971Z,25.42
2023-07-18T17:25:24.798Z,25.13
2023-07-18T17:27:57.748Z,25.92
2023-07-18T17:30:31.316Z,26.25
2023-07-18T17:33:05.660Z,25.90
2023-07-18T17:35:43.859Z,25.15
2023-07-18T17:38:17.041Z,25.88
2023-07-18T17:40:51.732Z,25.17
2023-07-18T17:43:24.644Z,25.15
2023-07-18T17:45:57.839Z,26.08
2023-07-18T17:48:31.405Z,25.80
2023-07-18T17:51:10.933Z,25.92
2023-07-18T17:53:43.001Z,26.45
2023-07-18T17:56:16.833Z,27.75
2023-07-18T17:58:49.976Z,26.48
2023-07-18T18:01:22.943Z,25.85
2023-07-18T18:03:57.513Z,26.48
2023-07-18T18:06:34.631Z,27.08
2023-07-18T18:09:07.968Z,26.10
2023-07-18T18:11:40.966Z,27.63
2023-07-18T18:14:13.274Z,26.58
2023-07-18T18:16:46.530Z,25.25
2023-07-18T18:19:21.703Z,26.15
2023-07-18T18:21:55.302Z,25.65
2023-07-18T18:24:28.675Z,25.60
2023-07-18T18:27:02.971Z,24.10
2023-07-18T18:29:36.136Z,24.80
2023-07-18T18:32:10.186Z,25.92
2023-07-18T18:34:56.671Z,25.98
2023-07-18T18:37:39.202Z,24.95
2023-07-18T18:40:13.601Z,25.15
2023-07-18T18:42:46.563Z,23.92
2023-07-18T18:45:21.864Z,24.02
2023-07-18T18:47:58.595Z,23.67
2023-07-18T18:50:30.973Z,23.65
2023-07-18T18:53:03.624Z,23.25
2023-07-18T18:55:36.535Z,23.02
2023-07-18T18:58:14.479Z,24.17
2023-07-18T19:00:47.999Z,25.13
2023-07-18T19:03:21.678Z,25.70
2023-07-18T19:05:55.033Z,24.13
2023-07-18T19:08:28.018Z,25.42
2023-07-18T19:11:08.038Z,25.20
2023-07-18T19:13:43.007Z,26.48
2023-07-18T19:16:28.855Z,24.67
2023-07-18T19:19:14.545Z,24.92
2023-07-18T19:21:49.062Z,26.52
2023-07-18T19:24:23.015Z,25.83
2023-07-18T19:26:57.680Z,24.73
2023-07-18T19:29:31.466Z,26.95
2023-07-18T19:32:05.187Z,25.85
2023-07-18T19:34:41.104Z,25.02
2023-07-18T19:37:18.683Z,25.67
2023-07-18T19:39:52.514Z,25.83
2023-07-18T19:42:26.413Z,25.58
2023-07-18T19:45:00.254Z,25.83
2023-07-18T19:47:34.916Z,26.33
2023-07-18T19:50:11.084Z,26.20
2023-07-18T19:52:45.625Z,26.88
2023-07-18T19:55:19.114Z,26.40
2023-07-18T19:57:52.477Z,25.83
2023-07-18T20:00:26.274Z,25.45
2023-07-18T20:03:00.774Z,27.35
2023-07-18T20:05:36.592Z,25.10
2023-07-18T20:08:10.570Z,27.55
2023-07-18T20:10:40.187Z,26.20
2023-07-18T20:13:10.142Z,27.00
2023-07-18T20:15:39.324Z,26.33
2023-07-18T20:18:08.755Z,26.88
2023-07-18T20:20:38.274Z,25.77
2023-07-18T20:23:07.477Z,28.77
2023-07-18T20:25:36.794Z,27.92
2023-07-18T20:28:06.580Z,26.25
2023-07-18T20:30:37.100Z,27.25
2023-07-18T20:33:06.374Z,25.45
2023-07-18T20:35:35.255Z,27.17
2023-07-18T20:38:05.010Z,25.08
2023-07-18T20:40:33.736Z,25.45
2023-07-18T20:43:02.825Z,25.63
2023-07-18T20:45:31.846Z,26.98
2023-07-18T20:48:02.149Z,25.52
2023-07-18T20:50:34.813Z,25.73
2023-07-18T20:53:03.854Z,25.40
2023-07-18T20:55:33.247Z,24.65
2023-07-18T20:58:02.976Z,27.30
2023-07-18T21:00:31.747Z,24.75
2023-07-18T21:03:03.868Z,25.48
2023-07-18T21:05:33.185Z,24.15
2023-07-18T21:08:04.211Z,25.60
2023-07-18T21:10:34.448Z,25.08
2023-07-18T21:13:07.382Z,25.25
2023-07-18T21:15:38.292Z,22.98
2023-07-18T21:18:07.350Z,24.33
2023-07-18T21:20:36.660Z,24.63
2023-07-18T21:23:05.937Z,24.95
2023-07-18T21:25:35.543Z,23.80
2023-07-18T21:28:04.993Z,23.45
2023-07-18T21:30:34.032Z,22.65
2023-07-18T21:33:02.950Z,23.98
2023-07-18T21:35:32.436Z,22.83
2023-07-18T21:38:01.227Z,23.95
2023-07-18T21:40:30.389Z,23.27
2023-07-18T21:42:59.258Z,24.23
2023-07-18T21:45:28.458Z,22.83
2023-07-18T21:47:57.421Z,23.55
2023-07-18T21:50:26.655Z,23.40
2023-07-18T21:52:55.528Z,22.63
2023-07-18T21:55:24.814Z,24.15
2023-07-18T21:57:53.656Z,23.63
2023-07-18T22:00:22.801Z,24.67
2023-07-18T22:02:51.746Z,23.23
2023-07-18T22:05:20.989Z,24.42
2023-07-18T22:07:49.800Z,22.30
2023-07-18T22:10:18.954Z,22.45
2023-07-18T22:12:47.985Z,22.63
2023-07-18T22:15:17.598Z,23.60
2023-07-18T22:17:48.017Z,23.63
2023-07-18T22:20:16.832Z,23.35
2023-07-18T22:22:45.994Z,22.58
2023-07-18T22:25:15.048Z,22.58
2023-07-18T22:27:44.064Z,22.92
2023-07-18T22:30:13.129Z,22.65
2023-07-18T22:32:42.444Z,22.63
2023-07-18T22:35:11.172Z,22.77
2023-07-18T22:37:40.175Z,22.13
2023-07-18T22:40:09.577Z,23.67
2023-07-18T22:42:38.748Z,22.92
2023-07-18T22:45:07.943Z,22.45
2023-07-18T22:47:37.085Z,22.75
2023-07-18T22:50:09.392Z,22.73
2023-07-18T22:52:38.479Z,23.63
2023-07-18T22:55:07.722Z,22.35
2023-07-18T22:57:36.825Z,23.75
2023-07-18T23:00:07.028Z,22.13
2023-07-18T23:02:36.696Z,23.50
2023-07-18T23:05:05.796Z,22.55
2023-07-18T23:07:36.681Z,22.55
2023-07-18T23:10:05.968Z,22.10
2023-07-18T23:12:34.820Z,22.85
2023-07-18T23:15:03.847Z,23.30
2023-07-18T23:17:32.686Z,21.98
2023-07-18T23:20:01.918Z,22.42
2023-07-18T23:22:30.946Z,21.75
2023-07-18T23:24:59.980Z,24.17
2023-07-18T23:27:28.763Z,23.65
2023-07-18T23:29:57.858Z,22.77
2023-07-18T23:32:26.746Z,25.05
2023-07-18T23:34:55.799Z,23.92
2023-07-18T23:37:25.008Z,26.75
2023-07-18T23:39:58.672Z,24.52
2023-07-18T23:42:28.950Z,25.13
2023-07-18T23:44:57.848Z,23.73
2023-07-18T23:47:26.845Z,24.42
2023-07-18T23:49:55.823Z,24.95
2023-07-18T23:52:24.675Z,26.15
2023-07-18T23:54:53.910Z,26.73
2023-07-18T23:57:23.949Z,24.10
2023-07-18T23:59:53.076Z,25.52
